sensor_id;sensor_type;location;lat;lon;timestamp;pressure;altitude;pressure_sealevel;temperature;humidity
74868;BME280;63419;42.262;12.210;2023-02-16T00:04:19;98771.13;;;9.34;nan
74868;BME280;63419;42.262;12.210;2023-02-16T00:06:48;98770.16;;;9.57;nan
74868;BME280;63419;42.262;12.210;2023-02-16T00:09:16;98767.22;;;10.09;nan
74868;BME280;63419;42.262;12.210;2023-02-16T00:11:46;98768.63;;;9.96;nan
74868;BME280;63419;42.262;12.210;2023-02-16T00:14:47;98759.03;;;10.20;nan
74868;BME280;63419;42.262;12.210;2023-02-16T00:17:14;98756.72;;;10.34;nan
74868;BME280;63419;42.262;12.210;2023-02-16T00:19:42;98755.25;;;10.47;nan
74868;BME280;63419;42.262;12.210;2023-02-16T00:22:09;98754.06;;;10.15;nan
74868;BME280;63419;42.262;12.210;2023-02-16T00:24:37;98756.25;;;10.04;nan
74868;BME280;63419;42.262;12.210;2023-02-16T00:27:13;98751.78;;;10.28;nan
74868;BME280;63419;42.262;12.210;2023-02-16T00:29:41;98748.97;;;10.74;nan
74868;BME280;63419;42.262;12.210;2023-02-16T00:32:26;98753.69;;;10.04;nan
74868;BME280;63419;42.262;12.210;2023-02-16T00:34:53;98753.63;;;11.03;nan
74868;BME280;63419;42.262;12.210;2023-02-16T00:37:21;98751.81;;;10.07;nan
74868;BME280;63419;42.262;12.210;2023-02-16T00:39:48;98753.03;;;8.90;nan
74868;BME280;63419;42.262;12.210;2023-02-16T00:42:26;98751.56;;;9.50;nan
74868;BME280;63419;42.262;12.210;2023-02-16T00:44:56;98743.53;;;9.99;nan
74868;BME280;63419;42.262;12.210;2023-02-16T00:47:39;98743.75;;;10.15;nan
74868;BME280;63419;42.262;12.210;2023-02-16T00:50:23;98733.16;;;10.80;nan
74868;BME280;63419;42.262;12.210;2023-02-16T00:52:52;98730.47;;;10.83;nan
74868;BME280;63419;42.262;12.210;2023-02-16T00:55:26;98729.59;;;11.01;nan
74868;BME280;63419;42.262;12.210;2023-02-16T00:58:26;98731.59;;;10.96;nan
74868;BME280;63419;42.262;12.210;2023-02-16T01:01:11;98724.25;;;10.68;nan
74868;BME280;63419;42.262;12.210;2023-02-16T01:03:40;98727.22;;;10.40;nan
74868;BME280;63419;42.262;12.210;2023-02-16T01:06:10;98716.78;;;10.43;nan
74868;BME280;63419;42.262;12.210;2023-02-16T01:09:11;98710.69;;;10.44;nan
74868;BME280;63419;42.262;12.210;2023-02-16T01:11:58;98713.91;;;10.49;nan
74868;BME280;63419;42.262;12.210;2023-02-16T01:14:26;98710.34;;;10.71;nan
74868;BME280;63419;42.262;12.210;2023-02-16T01:16:55;98712.31;;;10.84;nan
74868;BME280;63419;42.262;12.210;2023-02-16T01:19:23;98706.84;;;10.91;nan
74868;BME280;63419;42.262;12.210;2023-02-16T01:21:51;98713.91;;;11.06;nan
74868;BME280;63419;42.262;12.210;2023-02-16T01:24:18;98708.41;;;11.31;nan
74868;BME280;63419;42.262;12.210;2023-02-16T01:26:48;98705.16;;;11.09;nan
74868;BME280;63419;42.262;12.210;2023-02-16T01:29:20;98711.56;;;11.19;nan
74868;BME280;63419;42.262;12.210;2023-02-16T01:31:48;98732.53;;;6.51;nan
74868;BME280;63419;42.262;12.210;2023-02-16T01:34:16;98739.81;;;6.02;nan
74868;BME280;63419;42.262;12.210;2023-02-16T01:36:48;98731.09;;;7.55;nan
74868;BME280;63419;42.262;12.210;2023-02-16T01:39:18;98734.47;;;8.58;nan
74868;BME280;63419;42.262;12.210;2023-02-16T01:42:50;98724.09;;;8.61;nan
74868;BME280;63419;42.262;12.210;2023-02-16T01:45:29;98724.34;;;8.77;nan
74868;BME280;63419;42.262;12.210;2023-02-16T01:48:04;98716.69;;;8.75;nan
74868;BME280;63419;42.262;12.210;2023-02-16T01:50:50;98723.75;;;8.47;nan
74868;BME280;63419;42.262;12.210;2023-02-16T01:53:30;98731.59;;;6.24;nan
74868;BME280;63419;42.262;12.210;2023-02-16T02:00:14;98713.81;;;7.86;nan
74868;BME280;63419;42.262;12.210;2023-02-16T02:03:00;98713.16;;;8.06;nan
74868;BME280;63419;42.262;12.210;2023-02-16T02:05:51;98711.94;;;8.16;nan
74868;BME280;63419;42.262;12.210;2023-02-16T02:09:30;98704.81;;;8.71;nan
74868;BME280;63419;42.262;12.210;2023-02-16T02:14:57;98696.16;;;8.96;nan
74868;BME280;63419;42.262;12.210;2023-02-16T02:17:28;98685.59;;;9.04;nan
74868;BME280;63419;42.262;12.210;2023-02-16T02:20:15;98688.28;;;9.43;nan
74868;BME280;63419;42.262;12.210;2023-02-16T02:33:36;98679.75;;;9.63;nan
74868;BME280;63419;42.262;12.210;2023-02-16T02:36:30;98690.31;;;9.98;nan
74868;BME280;63419;42.262;12.210;2023-02-16T02:39:29;98682.59;;;10.17;nan
74868;BME280;63419;42.262;12.210;2023-02-16T02:45:39;98710.38;;;7.87;nan
74868;BME280;63419;42.262;12.210;2023-02-16T02:48:10;98701.59;;;8.66;nan
74868;BME280;63419;42.262;12.210;2023-02-16T02:50:51;98694.81;;;9.30;nan
74868;BME280;63419;42.262;12.210;2023-02-16T02:53:50;98690.50;;;9.52;nan
74868;BME280;63419;42.262;12.210;2023-02-16T02:56:43;98699.59;;;9.39;nan
74868;BME280;63419;42.262;12.210;2023-02-16T02:59:19;98700.19;;;8.32;nan
74868;BME280;63419;42.262;12.210;2023-02-16T03:02:07;98702.06;;;8.54;nan
74868;BME280;63419;42.262;12.210;2023-02-16T03:04:35;98703.88;;;8.25;nan
74868;BME280;63419;42.262;12.210;2023-02-16T03:07:05;98700.47;;;8.50;nan
74868;BME280;63419;42.262;12.210;2023-02-16T03:09:39;98701.78;;;8.13;nan
74868;BME280;63419;42.262;12.210;2023-02-16T03:12:08;98693.47;;;8.99;nan
74868;BME280;63419;42.262;12.210;2023-02-16T03:15:00;98693.69;;;9.37;nan
74868;BME280;63419;42.262;12.210;2023-02-16T03:17:38;98701.25;;;8.03;nan
74868;BME280;63419;42.262;12.210;2023-02-16T03:20:30;98694.13;;;9.04;nan
74868;BME280;63419;42.262;12.210;2023-02-16T03:23:17;98699.97;;;9.30;nan
74868;BME280;63419;42.262;12.210;2023-02-16T03:26:05;98704.06;;;8.91;nan
74868;BME280;63419;42.262;12.210;2023-02-16T03:28:51;98704.72;;;9.19;nan
74868;BME280;63419;42.262;12.210;2023-02-16T03:31:39;98703.22;;;8.91;nan
74868;BME280;63419;42.262;12.210;2023-02-16T03:34:11;98704.31;;;9.07;nan
74868;BME280;63419;42.262;12.210;2023-02-16T03:36:41;98702.34;;;8.92;nan
74868;BME280;63419;42.262;12.210;2023-02-16T03:39:35;98697.31;;;9.11;nan
74868;BME280;63419;42.262;12.210;2023-02-16T03:42:23;98696.31;;;8.69;nan
74868;BME280;63419;42.262;12.210;2023-02-16T03:44:50;98695.97;;;9.23;nan
74868;BME280;63419;42.262;12.210;2023-02-16T03:47:21;98699.97;;;8.64;nan
74868;BME280;63419;42.262;12.210;2023-02-16T03:49:48;98698.88;;;9.15;nan
74868;BME280;63419;42.262;12.210;2023-02-16T03:52:18;98699.44;;;9.44;nan
74868;BME280;63419;42.262;12.210;2023-02-16T03:54:46;98700.22;;;8.80;nan
74868;BME280;63419;42.262;12.210;2023-02-16T03:57:13;98697.47;;;7.88;nan
74868;BME280;63419;42.262;12.210;2023-02-16T04:00:13;98703.97;;;8.24;nan
74868;BME280;63419;42.262;12.210;2023-02-16T04:02:40;98711.38;;;8.56;nan
74868;BME280;63419;42.262;12.210;2023-02-16T04:05:09;98705.22;;;9.06;nan
74868;BME280;63419;42.262;12.210;2023-02-16T04:07:38;98703.75;;;9.21;nan
74868;BME280;63419;42.262;12.210;2023-02-16T04:11:25;98709.63;;;9.03;nan
74868;BME280;63419;42.262;12.210;2023-02-16T04:13:53;98703.94;;;8.94;nan
74868;BME280;63419;42.262;12.210;2023-02-16T04:16:21;98711.06;;;9.10;nan
74868;BME280;63419;42.262;12.210;2023-02-16T04:22:52;98706.91;;;9.07;nan
74868;BME280;63419;42.262;12.210;2023-02-16T04:31:15;98706.50;;;9.39;nan
74868;BME280;63419;42.262;12.210;2023-02-16T04:33:43;98714.34;;;9.58;nan
74868;BME280;63419;42.262;12.210;2023-02-16T04:36:10;98716.59;;;9.01;nan
74868;BME280;63419;42.262;12.210;2023-02-16T04:38:37;98707.53;;;9.34;nan
74868;BME280;63419;42.262;12.210;2023-02-16T04:41:05;98712.41;;;9.63;nan
74868;BME280;63419;42.262;12.210;2023-02-16T04:43:32;98721.63;;;9.26;nan
74868;BME280;63419;42.262;12.210;2023-02-16T04:45:59;98717.78;;;9.36;nan
74868;BME280;63419;42.262;12.210;2023-02-16T04:48:27;98722.34;;;9.07;nan
74868;BME280;63419;42.262;12.210;2023-02-16T04:50:54;98729.00;;;8.89;nan
74868;BME280;63419;42.262;12.210;2023-02-16T04:53:21;98729.69;;;8.49;nan
74868;BME280;63419;42.262;12.210;2023-02-16T04:55:49;98733.94;;;9.18;nan
74868;BME280;63419;42.262;12.210;2023-02-16T04:58:16;98736.09;;;9.06;nan
74868;BME280;63419;42.262;12.210;2023-02-16T05:00:44;98729.50;;;8.77;nan
74868;BME280;63419;42.262;12.210;2023-02-16T05:03:11;98731.81;;;9.29;nan
74868;BME280;63419;42.262;12.210;2023-02-16T05:05:38;98736.09;;;9.06;nan
74868;BME280;63419;42.262;12.210;2023-02-16T05:08:06;98737.13;;;9.02;nan
74868;BME280;63419;42.262;12.210;2023-02-16T05:10:33;98734.00;;;9.38;nan
74868;BME280;63419;42.262;12.210;2023-02-16T05:13:01;98730.94;;;9.50;nan
74868;BME280;63419;42.262;12.210;2023-02-16T05:15:46;98736.00;;;9.09;nan
74868;BME280;63419;42.262;12.210;2023-02-16T05:18:13;98738.38;;;8.45;nan
74868;BME280;63419;42.262;12.210;2023-02-16T05:20:41;98737.81;;;8.84;nan
74868;BME280;63419;42.262;12.210;2023-02-16T05:23:27;98738.84;;;8.56;nan
74868;BME280;63419;42.262;12.210;2023-02-16T05:30:13;98741.47;;;8.78;nan
74868;BME280;63419;42.262;12.210;2023-02-16T05:32:48;98746.41;;;8.35;nan
74868;BME280;63419;42.262;12.210;2023-02-16T05:35:15;98754.06;;;8.62;nan
74868;BME280;63419;42.262;12.210;2023-02-16T05:37:42;98747.97;;;8.65;nan
74868;BME280;63419;42.262;12.210;2023-02-16T05:40:10;98756.47;;;8.43;nan
74868;BME280;63419;42.262;12.210;2023-02-16T05:42:38;98753.44;;;7.80;nan
74868;BME280;63419;42.262;12.210;2023-02-16T05:45:05;98750.56;;;8.39;nan
74868;BME280;63419;42.262;12.210;2023-02-16T05:47:33;98745.22;;;8.20;nan
74868;BME280;63419;42.262;12.210;2023-02-16T05:50:00;98740.47;;;8.33;nan
74868;BME280;63419;42.262;12.210;2023-02-16T05:52:27;98753.28;;;7.85;nan
74868;BME280;63419;42.262;12.210;2023-02-16T05:54:54;98762.72;;;7.57;nan
74868;BME280;63419;42.262;12.210;2023-02-16T05:57:21;98758.25;;;7.89;nan
74868;BME280;63419;42.262;12.210;2023-02-16T05:59:48;98751.69;;;6.99;nan
74868;BME280;63419;42.262;12.210;2023-02-16T06:02:16;98755.44;;;7.45;nan
74868;BME280;63419;42.262;12.210;2023-02-16T06:04:43;98763.72;;;6.97;nan
74868;BME280;63419;42.262;12.210;2023-02-16T06:07:10;98767.44;;;7.96;nan
74868;BME280;63419;42.262;12.210;2023-02-16T06:09:40;98770.50;;;8.33;nan
74868;BME280;63419;42.262;12.210;2023-02-16T06:12:07;98770.09;;;8.20;nan
74868;BME280;63419;42.262;12.210;2023-02-16T06:14:34;98773.59;;;7.66;nan
74868;BME280;63419;42.262;12.210;2023-02-16T06:17:02;98777.03;;;7.91;nan
74868;BME280;63419;42.262;12.210;2023-02-16T06:20:10;98787.44;;;7.88;nan
74868;BME280;63419;42.262;12.210;2023-02-16T06:22:46;98796.81;;;7.89;nan
74868;BME280;63419;42.262;12.210;2023-02-16T06:25:13;98809.47;;;7.95;nan
74868;BME280;63419;42.262;12.210;2023-02-16T06:27:40;98824.66;;;8.28;nan
74868;BME280;63419;42.262;12.210;2023-02-16T06:30:08;98820.63;;;7.94;nan
74868;BME280;63419;42.262;12.210;2023-02-16T06:32:35;98826.91;;;8.37;nan
74868;BME280;63419;42.262;12.210;2023-02-16T06:35:03;98830.63;;;8.81;nan
74868;BME280;63419;42.262;12.210;2023-02-16T06:40:16;98833.75;;;8.38;nan
74868;BME280;63419;42.262;12.210;2023-02-16T06:42:45;98832.94;;;8.63;nan
74868;BME280;63419;42.262;12.210;2023-02-16T06:45:12;98845.97;;;8.82;nan
74868;BME280;63419;42.262;12.210;2023-02-16T06:47:39;98842.56;;;9.29;nan
74868;BME280;63419;42.262;12.210;2023-02-16T06:50:07;98846.91;;;9.27;nan
74868;BME280;63419;42.262;12.210;2023-02-16T06:52:36;98845.41;;;9.67;nan
74868;BME280;63419;42.262;12.210;2023-02-16T06:55:03;98845.25;;;9.26;nan
74868;BME280;63419;42.262;12.210;2023-02-16T06:57:30;98847.97;;;8.99;nan
74868;BME280;63419;42.262;12.210;2023-02-16T06:59:58;98848.63;;;9.04;nan
74868;BME280;63419;42.262;12.210;2023-02-16T07:02:25;98855.78;;;9.43;nan
74868;BME280;63419;42.262;12.210;2023-02-16T07:04:52;98850.38;;;10.14;nan
74868;BME280;63419;42.262;12.210;2023-02-16T07:07:20;98858.34;;;8.72;nan
74868;BME280;63419;42.262;12.210;2023-02-16T07:09:47;98851.16;;;10.59;nan
74868;BME280;63419;42.262;12.210;2023-02-16T07:12:14;98845.13;;;10.79;nan
74868;BME280;63419;42.262;12.210;2023-02-16T07:14:42;98844.94;;;11.02;nan
74868;BME280;63419;42.262;12.210;2023-02-16T07:17:10;98837.28;;;10.61;nan
74868;BME280;63419;42.262;12.210;2023-02-16T07:19:37;98845.22;;;11.34;nan
74868;BME280;63419;42.262;12.210;2023-02-16T07:22:04;98845.34;;;10.33;nan
74868;BME280;63419;42.262;12.210;2023-02-16T07:24:31;98853.59;;;11.01;nan
74868;BME280;63419;42.262;12.210;2023-02-16T08:16:42;98899.22;;;9.05;nan
74868;BME280;63419;42.262;12.210;2023-02-16T08:23:01;98898.13;;;9.36;nan
74868;BME280;63419;42.262;12.210;2023-02-16T08:25:28;98902.19;;;9.42;nan
74868;BME280;63419;42.262;12.210;2023-02-16T08:27:55;98899.22;;;9.52;nan
74868;BME280;63419;42.262;12.210;2023-02-16T08:30:22;98899.88;;;10.24;nan
74868;BME280;63419;42.262;12.210;2023-02-16T08:32:51;98896.09;;;10.10;nan
74868;BME280;63419;42.262;12.210;2023-02-16T08:35:19;98894.81;;;10.00;nan
74868;BME280;63419;42.262;12.210;2023-02-16T08:37:46;98895.41;;;9.85;nan
74868;BME280;63419;42.262;12.210;2023-02-16T08:40:13;98894.44;;;10.09;nan
74868;BME280;63419;42.262;12.210;2023-02-16T08:42:40;98900.81;;;9.79;nan
74868;BME280;63419;42.262;12.210;2023-02-16T08:45:08;98900.38;;;10.54;nan
74868;BME280;63419;42.262;12.210;2023-02-16T08:47:36;98901.81;;;9.97;nan
74868;BME280;63419;42.262;12.210;2023-02-16T08:50:04;98897.78;;;10.34;nan
74868;BME280;63419;42.262;12.210;2023-02-16T08:52:32;98904.50;;;10.79;nan
74868;BME280;63419;42.262;12.210;2023-02-16T08:54:59;98903.66;;;10.78;nan
74868;BME280;63419;42.262;12.210;2023-02-16T08:57:27;98908.38;;;10.48;nan
74868;BME280;63419;42.262;12.210;2023-02-16T08:59:54;98905.16;;;10.63;nan
74868;BME280;63419;42.262;12.210;2023-02-16T09:02:40;98908.53;;;11.45;nan
74868;BME280;63419;42.262;12.210;2023-02-16T09:05:07;98909.66;;;10.38;nan
74868;BME280;63419;42.262;12.210;2023-02-16T09:07:35;98912.13;;;10.61;nan
74868;BME280;63419;42.262;12.210;2023-02-16T09:10:03;98918.06;;;9.99;nan
74868;BME280;63419;42.262;12.210;2023-02-16T09:12:31;98923.94;;;10.88;nan
74868;BME280;63419;42.262;12.210;2023-02-16T09:15:01;98926.09;;;10.35;nan
74868;BME280;63419;42.262;12.210;2023-02-16T09:17:29;98923.94;;;10.24;nan
74868;BME280;63419;42.262;12.210;2023-02-16T09:19:56;98928.19;;;10.25;nan
74868;BME280;63419;42.262;12.210;2023-02-16T09:22:24;98920.53;;;10.66;nan
74868;BME280;63419;42.262;12.210;2023-02-16T09:24:51;98931.84;;;10.42;nan
74868;BME280;63419;42.262;12.210;2023-02-16T09:27:18;98940.25;;;10.47;nan
74868;BME280;63419;42.262;12.210;2023-02-16T09:29:46;98932.31;;;10.29;nan
74868;BME280;63419;42.262;12.210;2023-02-16T09:32:13;98937.56;;;10.50;nan
74868;BME280;63419;42.262;12.210;2023-02-16T09:34:41;98936.56;;;10.53;nan
74868;BME280;63419;42.262;12.210;2023-02-16T09:37:10;98931.84;;;11.62;nan
74868;BME280;63419;42.262;12.210;2023-02-16T09:39:37;98934.88;;;12.08;nan
74868;BME280;63419;42.262;12.210;2023-02-16T09:42:32;98944.09;;;9.93;nan
74868;BME280;63419;42.262;12.210;2023-02-16T09:45:16;98945.53;;;10.44;nan
74868;BME280;63419;42.262;12.210;2023-02-16T09:47:49;98948.44;;;10.36;nan
74868;BME280;63419;42.262;12.210;2023-02-16T09:53:37;98953.41;;;10.82;nan
74868;BME280;63419;42.262;12.210;2023-02-16T10:08:13;98956.75;;;10.85;nan
74868;BME280;63419;42.262;12.210;2023-02-16T10:10:55;98967.00;;;10.22;nan
74868;BME280;63419;42.262;12.210;2023-02-16T10:13:42;98960.84;;;10.69;nan
74868;BME280;63419;42.262;12.210;2023-02-16T10:16:28;98962.94;;;10.39;nan
74868;BME280;63419;42.262;12.210;2023-02-16T10:19:01;98959.94;;;11.51;nan
74868;BME280;63419;42.262;12.210;2023-02-16T10:21:31;98966.59;;;10.55;nan
74868;BME280;63419;42.262;12.210;2023-02-16T10:24:04;98964.78;;;10.57;nan
74868;BME280;63419;42.262;12.210;2023-02-16T10:26:36;98962.09;;;10.81;nan
74868;BME280;63419;42.262;12.210;2023-02-16T10:29:15;98963.09;;;10.56;nan
74868;BME280;63419;42.262;12.210;2023-02-16T10:35:04;98952.13;;;11.71;nan
74868;BME280;63419;42.262;12.210;2023-02-16T10:40:49;98959.66;;;11.17;nan
74868;BME280;63419;42.262;12.210;2023-02-16T10:44:02;98958.97;;;10.30;nan
74868;BME280;63419;42.262;12.210;2023-02-16T10:46:41;98957.94;;;11.18;nan
74868;BME280;63419;42.262;12.210;2023-02-16T10:49:13;98957.41;;;10.48;nan
74868;BME280;63419;42.262;12.210;2023-02-16T10:51:47;98951.75;;;12.34;nan
74868;BME280;63419;42.262;12.210;2023-02-16T10:54:31;98947.03;;;10.91;nan
74868;BME280;63419;42.262;12.210;2023-02-16T10:57:04;98949.72;;;11.29;nan
74868;BME280;63419;42.262;12.210;2023-02-16T10:59:40;98949.81;;;10.65;nan
74868;BME280;63419;42.262;12.210;2023-02-16T11:02:55;98944.66;;;10.65;nan
74868;BME280;63419;42.262;12.210;2023-02-16T11:05:37;98938.69;;;11.25;nan
74868;BME280;63419;42.262;12.210;2023-02-16T11:08:06;98932.59;;;10.86;nan
74868;BME280;63419;42.262;12.210;2023-02-16T11:10:49;98932.81;;;11.97;nan
74868;BME280;63419;42.262;12.210;2023-02-16T11:13:34;98933.53;;;11.04;nan
74868;BME280;63419;42.262;12.210;2023-02-16T11:16:18;98932.41;;;12.07;nan
74868;BME280;63419;42.262;12.210;2023-02-16T11:21:50;98926.06;;;10.98;nan
74868;BME280;63419;42.262;12.210;2023-02-16T11:27:18;98920.78;;;11.77;nan
74868;BME280;63419;42.262;12.210;2023-02-16T11:29:46;98904.13;;;13.07;nan
74868;BME280;63419;42.262;12.210;2023-02-16T11:32:17;98904.63;;;12.10;nan
74868;BME280;63419;42.262;12.210;2023-02-16T11:34:50;98918.00;;;11.44;nan
74868;BME280;63419;42.262;12.210;2023-02-16T11:37:32;98908.97;;;11.15;nan
74868;BME280;63419;42.262;12.210;2023-02-16T11:40:05;98903.34;;;11.26;nan
74868;BME280;63419;42.262;12.210;2023-02-16T11:42:40;98906.00;;;12.17;nan
74868;BME280;63419;42.262;12.210;2023-02-16T11:45:26;98879.63;;;14.83;nan
74868;BME280;63419;42.262;12.210;2023-02-16T11:48:05;98896.69;;;12.83;nan
74868;BME280;63419;42.262;12.210;2023-02-16T11:50:53;98883.91;;;14.09;nan
74868;BME280;63419;42.262;12.210;2023-02-16T11:53:27;98878.88;;;14.06;nan
74868;BME280;63419;42.262;12.210;2023-02-16T11:58:43;98893.59;;;11.88;nan
74868;BME280;63419;42.262;12.210;2023-02-16T12:01:28;98892.13;;;12.01;nan
74868;BME280;63419;42.262;12.210;2023-02-16T12:04:58;98873.59;;;14.07;nan
74868;BME280;63419;42.262;12.210;2023-02-16T12:07:27;98876.44;;;13.57;nan
74868;BME280;63419;42.262;12.210;2023-02-16T12:13:31;98877.97;;;11.91;nan
74868;BME280;63419;42.262;12.210;2023-02-16T12:16:43;98884.91;;;11.52;nan
74868;BME280;63419;42.262;12.210;2023-02-16T12:19:24;98877.69;;;11.02;nan
74868;BME280;63419;42.262;12.210;2023-02-16T12:22:36;98872.47;;;11.41;nan
74868;BME280;63419;42.262;12.210;2023-02-16T12:25:39;98860.63;;;12.45;nan
74868;BME280;63419;42.262;12.210;2023-02-16T12:28:30;98859.06;;;12.76;nan
74868;BME280;63419;42.262;12.210;2023-02-16T12:43:41;98821.53;;;13.80;nan
74868;BME280;63419;42.262;12.210;2023-02-16T12:46:31;98819.91;;;15.39;nan
74868;BME280;63419;42.262;12.210;2023-02-16T12:54:51;98814.41;;;15.71;nan
74868;BME280;63419;42.262;12.210;2023-02-16T12:57:25;98817.16;;;14.11;nan
74868;BME280;63419;42.262;12.210;2023-02-16T13:03:37;98802.09;;;13.87;nan
74868;BME280;63419;42.262;12.210;2023-02-16T13:09:28;98798.78;;;13.69;nan
74868;BME280;63419;42.262;12.210;2023-02-16T13:15:13;98802.31;;;13.52;nan
74868;BME280;63419;42.262;12.210;2023-02-16T13:18:41;98786.16;;;14.38;nan
74868;BME280;63419;42.262;12.210;2023-02-16T13:38:31;98790.94;;;13.55;nan
74868;BME280;63419;42.262;12.210;2023-02-16T13:44:16;98798.13;;;13.18;nan
74868;BME280;63419;42.262;12.210;2023-02-16T13:46:49;98794.97;;;14.36;nan
74868;BME280;63419;42.262;12.210;2023-02-16T13:49:36;98806.34;;;13.42;nan
74868;BME280;63419;42.262;12.210;2023-02-16T13:52:08;98793.03;;;14.97;nan
74868;BME280;63419;42.262;12.210;2023-02-16T13:54:40;98792.75;;;15.43;nan
74868;BME280;63419;42.262;12.210;2023-02-16T13:57:13;98804.06;;;14.43;nan
74868;BME280;63419;42.262;12.210;2023-02-16T13:59:57;98801.53;;;12.53;nan
74868;BME280;63419;42.262;12.210;2023-02-16T14:03:10;98808.56;;;12.51;nan
74868;BME280;63419;42.262;12.210;2023-02-16T14:05:45;98810.06;;;12.55;nan
74868;BME280;63419;42.262;12.210;2023-02-16T14:08:27;98805.97;;;12.67;nan
74868;BME280;63419;42.262;12.210;2023-02-16T14:11:03;98806.84;;;12.68;nan
74868;BME280;63419;42.262;12.210;2023-02-16T14:13:46;98804.88;;;12.55;nan
74868;BME280;63419;42.262;12.210;2023-02-16T14:18:46;98790.91;;;12.91;nan
74868;BME280;63419;42.262;12.210;2023-02-16T14:21:28;98799.63;;;13.54;nan
74868;BME280;63419;42.262;12.210;2023-02-16T14:24:23;98797.47;;;13.62;nan
74868;BME280;63419;42.262;12.210;2023-02-16T14:27:40;98805.97;;;14.11;nan
74868;BME280;63419;42.262;12.210;2023-02-16T14:33:06;98783.56;;;13.94;nan
74868;BME280;63419;42.262;12.210;2023-02-16T14:36:02;98806.69;;;14.13;nan
74868;BME280;63419;42.262;12.210;2023-02-16T14:38:48;98803.72;;;13.58;nan
74868;BME280;63419;42.262;12.210;2023-02-16T14:41:26;98792.13;;;13.96;nan
74868;BME280;63419;42.262;12.210;2023-02-16T14:50:20;98798.09;;;12.53;nan
74868;BME280;63419;42.262;12.210;2023-02-16T14:56:44;98792.78;;;12.38;nan
74868;BME280;63419;42.262;12.210;2023-02-16T15:02:33;98787.16;;;12.64;nan
74868;BME280;63419;42.262;12.210;2023-02-16T15:05:34;98785.44;;;14.06;nan
74868;BME280;63419;42.262;12.210;2023-02-16T15:08:15;98788.13;;;12.45;nan
74868;BME280;63419;42.262;12.210;2023-02-16T15:10:45;98798.75;;;13.85;nan
74868;BME280;63419;42.262;12.210;2023-02-16T15:13:22;98782.06;;;14.20;nan
74868;BME280;63419;42.262;12.210;2023-02-16T15:15:55;98799.22;;;12.65;nan
74868;BME280;63419;42.262;12.210;2023-02-16T15:18:37;98786.63;;;15.44;nan
74868;BME280;63419;42.262;12.210;2023-02-16T15:21:15;98786.56;;;13.24;nan
74868;BME280;63419;42.262;12.210;2023-02-16T15:23:50;98771.53;;;13.62;nan
74868;BME280;63419;42.262;12.210;2023-02-16T15:26:29;98779.72;;;13.07;nan
74868;BME280;63419;42.262;12.210;2023-02-16T15:29:01;98785.28;;;12.34;nan
74868;BME280;63419;42.262;12.210;2023-02-16T15:31:35;98779.34;;;13.77;nan
74868;BME280;63419;42.262;12.210;2023-02-16T15:34:09;98790.94;;;13.07;nan
74868;BME280;63419;42.262;12.210;2023-02-16T15:36:42;98786.69;;;12.57;nan
74868;BME280;63419;42.262;12.210;2023-02-16T15:39:23;98792.25;;;12.99;nan
74868;BME280;63419;42.262;12.210;2023-02-16T15:42:27;98791.06;;;12.88;nan
74868;BME280;63419;42.262;12.210;2023-02-16T15:44:55;98790.75;;;12.28;nan
74868;BME280;63419;42.262;12.210;2023-02-16T15:47:25;98775.88;;;13.30;nan
74868;BME280;63419;42.262;12.210;2023-02-16T15:49:53;98786.13;;;12.68;nan
74868;BME280;63419;42.262;12.210;2023-02-16T15:52:32;98791.06;;;12.22;nan
74868;BME280;63419;42.262;12.210;2023-02-16T15:55:05;98787.31;;;12.45;nan
74868;BME280;63419;42.262;12.210;2023-02-16T15:57:37;98796.53;;;12.33;nan
74868;BME280;63419;42.262;12.210;2023-02-16T16:00:20;98791.19;;;12.53;nan
74868;BME280;63419;42.262;12.210;2023-02-16T16:02:52;98790.00;;;11.18;nan
74868;BME280;63419;42.262;12.210;2023-02-16T16:05:29;98791.97;;;12.38;nan
74868;BME280;63419;42.262;12.210;2023-02-16T16:08:03;98785.06;;;13.04;nan
74868;BME280;63419;42.262;12.210;2023-02-16T16:10:34;98782.72;;;12.99;nan
74868;BME280;63419;42.262;12.210;2023-02-16T16:13:09;98777.00;;;13.72;nan
74868;BME280;63419;42.262;12.210;2023-02-16T16:15:43;98785.66;;;12.60;nan
74868;BME280;63419;42.262;12.210;2023-02-16T16:18:37;98795.41;;;12.21;nan
74868;BME280;63419;42.262;12.210;2023-02-16T16:24:06;98795.09;;;11.92;nan
74868;BME280;63419;42.262;12.210;2023-02-16T16:26:56;98787.13;;;11.78;nan
74868;BME280;63419;42.262;12.210;2023-02-16T16:29:39;98785.78;;;11.88;nan
74868;BME280;63419;42.262;12.210;2023-02-16T16:32:21;98786.63;;;11.71;nan
74868;BME280;63419;42.262;12.210;2023-02-16T16:34:50;98788.41;;;12.23;nan
74868;BME280;63419;42.262;12.210;2023-02-16T16:37:27;98792.59;;;12.08;nan
74868;BME280;63419;42.262;12.210;2023-02-16T16:39:59;98797.47;;;11.78;nan
74868;BME280;63419;42.262;12.210;2023-02-16T16:42:28;98788.00;;;12.48;nan
74868;BME280;63419;42.262;12.210;2023-02-16T16:47:50;98784.50;;;12.65;nan
74868;BME280;63419;42.262;12.210;2023-02-16T16:50:36;98789.28;;;12.40;nan
74868;BME280;63419;42.262;12.210;2023-02-16T16:55:56;98783.50;;;12.52;nan
74868;BME280;63419;42.262;12.210;2023-02-16T16:58:23;98788.25;;;11.91;nan
74868;BME280;63419;42.262;12.210;2023-02-16T17:00:52;98787.66;;;12.54;nan
74868;BME280;63419;42.262;12.210;2023-02-16T17:03:19;98786.34;;;12.63;nan
74868;BME280;63419;42.262;12.210;2023-02-16T17:05:46;98785.03;;;12.72;nan
74868;BME280;63419;42.262;12.210;2023-02-16T17:08:14;98781.31;;;13.25;nan
74868;BME280;63419;42.262;12.210;2023-02-16T17:10:55;98775.38;;;13.23;nan
74868;BME280;63419;42.262;12.210;2023-02-16T17:13:22;98784.59;;;11.95;nan
74868;BME280;63419;42.262;12.210;2023-02-16T17:18:22;98789.66;;;12.49;nan
74868;BME280;63419;42.262;12.210;2023-02-16T17:20:51;98785.03;;;12.72;nan
74868;BME280;63419;42.262;12.210;2023-02-16T17:23:20;98781.56;;;13.37;nan
74868;BME280;63419;42.262;12.210;2023-02-16T17:25:49;98788.31;;;12.91;nan
74868;BME280;63419;42.262;12.210;2023-02-16T17:28:18;98789.53;;;13.33;nan